Time;durP1;ratioP1;P1;durP2;ratioP2;P2;SDS_P1;SDS_P2;PMS_P1;PMS_P2;Temp;Humidity;BMP_temperature;BMP_pressure;BME280_temperature;BME280_humidity;BME280_pressure;Samples;Min_cycle;Max_cycle;Signal;HPM_P1;HPM_P2
2022/09/27 04:02:32;;;;;;;2.70;0.55;;;;;;;;;;5174758;22;20448;-80
2022/09/27 04:04:58;;;;;;;1.90;0.70;;;;;;;;;;5081106;28;20424;-80
2022/09/27 04:07:24;;;;;;;2.25;0.70;;;;;;;;;;5093844;28;20529;-80
2022/09/27 04:09:50;;;;;;;1.80;0.80;;;;;;;;;;5093612;28;20739;-80
2022/09/27 04:12:16;;;;;;;2.50;0.73;;;;;;;;;;5060192;28;20918;-80
2022/09/27 04:14:42;;;;;;;1.33;0.70;;;;;;;;;;5073484;28;20444;-80
2022/09/27 04:17:08;;;;;;;2.40;0.80;;;;;;;;;;5073413;28;20949;-80
2022/09/27 04:19:35;;;;;;;2.35;0.82;;;;;;;;;;5073188;28;20449;-80
2022/09/27 04:22:01;;;;;;;2.38;0.90;;;;;;;;;;5073151;28;20384;-80
2022/09/27 04:24:27;;;;;;;2.22;0.80;;;;;;;;;;5073418;28;20388;-79
2022/09/27 04:26:53;;;;;;;3.38;0.95;;;;;;;;;;5072978;28;20422;-80
2022/09/27 04:29:19;;;;;;;2.93;0.83;;;;;;;;;;5055384;28;20383;-80
2022/09/27 04:31:46;;;;;;;2.55;0.93;;;;;;;;;;5073041;28;20802;-80
2022/09/27 04:34:12;;;;;;;2.97;1.00;;;;;;;;;;5073080;28;20418;-80
2022/09/27 04:36:38;;;;;;;2.70;0.90;;;;;;;;;;5072894;28;20412;-80
2022/09/27 04:39:06;;;;;;;2.08;0.93;;;;;;;;;;5073308;28;20429;-80
2022/09/27 04:41:34;;;;;;;2.57;1.00;;;;;;;;;;5073017;28;20380;-80
2022/09/27 04:44:00;;;;;;;3.47;1.10;;;;;;;;;;5073527;28;20379;-80
2022/09/27 04:46:30;;;;;;;2.00;0.85;;;;;;;;;;5072780;28;20957;-79
2022/09/27 04:48:56;;;;;;;3.33;1.08;;;;;;;;;;5072757;28;20419;-80
2022/09/27 04:51:22;;;;;;;4.20;1.10;;;;;;;;;;5072781;28;20391;-79
2022/09/27 04:53:48;;;;;;;4.30;1.02;;;;;;;;;;5072903;28;20388;-80
2022/09/27 04:56:14;;;;;;;1.90;1.00;;;;;;;;;;5072593;28;20848;-80
2022/09/27 04:58:41;;;;;;;2.83;1.10;;;;;;;;;;5072402;28;20814;-79
2022/09/27 05:01:08;;;;;;;2.85;1.05;;;;;;;;;;4990438;28;20405;-80
2022/09/27 05:03:34;;;;;;;1.90;0.90;;;;;;;;;;4990751;28;20422;-80
2022/09/27 05:06:00;;;;;;;3.50;1.10;;;;;;;;;;4990517;28;20499;-79
2022/09/27 05:08:26;;;;;;;3.20;1.05;;;;;;;;;;5020756;28;20729;-80
2022/09/27 05:10:53;;;;;;;2.45;1.10;;;;;;;;;;5072276;28;20408;-79
2022/09/27 05:13:19;;;;;;;2.50;1.03;;;;;;;;;;4970572;28;20819;-80
2022/09/27 05:15:45;;;;;;;2.40;1.02;;;;;;;;;;4953626;28;20877;-80
2022/09/27 05:18:11;;;;;;;3.35;1.08;;;;;;;;;;4970676;28;20487;-80
2022/09/27 05:20:38;;;;;;;2.30;0.80;;;;;;;;;;4970927;28;20408;-80
2022/09/27 05:23:04;;;;;;;2.60;0.90;;;;;;;;;;4970800;28;20487;-81
2022/09/27 05:25:31;;;;;;;1.95;0.80;;;;;;;;;;4970862;28;20927;-81
2022/09/27 05:27:57;;;;;;;2.08;0.73;;;;;;;;;;4970833;28;20400;-80
2022/09/27 05:30:24;;;;;;;2.05;0.80;;;;;;;;;;5072467;28;20403;-80
2022/09/27 05:32:51;;;;;;;2.58;0.70;;;;;;;;;;5071923;28;20467;-80
2022/09/27 05:35:18;;;;;;;1.92;0.80;;;;;;;;;;5072319;28;20435;-80
2022/09/27 05:37:50;;;;;;;2.63;0.95;;;;;;;;;;5072416;28;20864;-80
2022/09/27 05:40:16;;;;;;;2.65;0.90;;;;;;;;;;5072317;28;20379;-80
2022/09/27 05:42:42;;;;;;;2.75;1.02;;;;;;;;;;5072320;28;20466;-80
2022/09/27 05:45:08;;;;;;;2.78;1.00;;;;;;;;;;5072070;28;20438;-80
2022/09/27 05:47:34;;;;;;;2.10;1.13;;;;;;;;;;5071714;28;20380;-80
2022/09/27 05:50:00;;;;;;;2.70;1.00;;;;;;;;;;5072145;28;20408;-80
2022/09/27 05:52:27;;;;;;;1.67;1.13;;;;;;;;;;5072106;28;20424;-80
2022/09/27 05:54:53;;;;;;;3.47;1.15;;;;;;;;;;5054117;28;20879;-80
2022/09/27 05:57:19;;;;;;;2.35;1.17;;;;;;;;;;5054506;28;20412;-80
2022/09/27 05:59:46;;;;;;;2.28;1.15;;;;;;;;;;5071450;28;20819;-80
2022/09/27 06:02:12;;;;;;;3.33;1.25;;;;;;;;;;5071765;28;20395;-80
2022/09/27 06:04:39;;;;;;;2.10;1.20;;;;;;;;;;5072060;28;20392;-80
2022/09/27 06:07:05;;;;;;;2.13;1.10;;;;;;;;;;5073370;28;20403;-80
2022/09/27 06:09:31;;;;;;;3.80;1.25;;;;;;;;;;5074487;28;20400;-82
2022/09/27 06:11:58;;;;;;;2.65;1.00;;;;;;;;;;5074772;28;20375;-80
2022/09/27 06:14:24;;;;;;;1.83;0.90;;;;;;;;;;5075265;28;20376;-80
2022/09/27 06:16:50;;;;;;;2.35;1.00;;;;;;;;;;5075277;28;20414;-80
2022/09/27 06:19:16;;;;;;;4.00;1.25;;;;;;;;;;5075114;28;20383;-80
2022/09/27 06:21:42;;;;;;;3.88;1.73;;;;;;;;;;5075033;28;20390;-80
2022/09/27 06:24:08;;;;;;;3.03;1.30;;;;;;;;;;5075108;28;20466;-79
2022/09/27 06:26:34;;;;;;;2.85;1.02;;;;;;;;;;5074925;28;20452;-80
2022/09/27 06:29:00;;;;;;;1.50;1.30;;;;;;;;;;5074886;28;20388;-79
2022/09/27 06:31:26;;;;;;;2.35;1.48;;;;;;;;;;5074603;28;20880;-80
2022/09/27 06:33:52;;;;;;;1.55;0.80;;;;;;;;;;5074847;28;20411;-79
2022/09/27 06:36:18;;;;;;;2.30;0.90;;;;;;;;;;5074880;28;20391;-80
2022/09/27 06:38:47;;;;;;;1.75;0.95;;;;;;;;;;5074662;28;20394;-80
2022/09/27 06:41:14;;;;;;;3.17;0.90;;;;;;;;;;5074615;28;20395;-80
2022/09/27 06:43:40;;;;;;;2.25;0.75;;;;;;;;;;5075086;28;20429;-79
2022/09/27 06:46:06;;;;;;;1.33;0.70;;;;;;;;;;5075245;28;20872;-80
2022/09/27 06:48:32;;;;;;;2.70;0.70;;;;;;;;;;5075574;28;20383;-79
2022/09/27 06:50:59;;;;;;;1.15;0.50;;;;;;;;;;5021989;28;20376;-79
2022/09/27 06:53:25;;;;;;;1.60;0.68;;;;;;;;;;5072521;28;20379;-79
2022/09/27 06:55:51;;;;;;;1.50;0.70;;;;;;;;;;5055210;28;20768;-81
2022/09/27 07:01:02;;;;;;;1.70;0.60;;;;;;;;;;5073767;28;20469;-80
2022/09/27 07:03:33;;;;;;;1.80;0.68;;;;;;;;;;5074225;28;20395;-80
2022/09/27 07:06:00;;;;;;;0.82;0.60;;;;;;;;;;5074527;28;20399;-80
2022/09/27 07:08:27;;;;;;;1.25;0.60;;;;;;;;;;5074496;28;20387;-81
2022/09/27 07:10:54;;;;;;;1.00;0.50;;;;;;;;;;5074507;28;20384;-81
2022/09/27 07:13:20;;;;;;;1.20;0.70;;;;;;;;;;5074876;28;20457;-80
2022/09/27 07:15:46;;;;;;;1.35;0.57;;;;;;;;;;5068360;28;20465;-81
2022/09/27 07:18:12;;;;;;;0.80;0.47;;;;;;;;;;5069727;28;20387;-80
2022/09/27 07:20:38;;;;;;;0.95;0.30;;;;;;;;;;5074169;28;20853;-81
2022/09/27 07:23:08;;;;;;;1.48;0.40;;;;;;;;;;5074308;28;20467;-81
2022/09/27 07:25:34;;;;;;;0.50;0.40;;;;;;;;;;5056528;28;20977;-80
2022/09/27 07:28:05;;;;;;;1.25;0.52;;;;;;;;;;5073617;28;20387;-81
2022/09/27 07:30:32;;;;;;;1.13;0.50;;;;;;;;;;5073712;28;20380;-81
2022/09/27 07:32:58;;;;;;;0.70;0.60;;;;;;;;;;5073737;28;20379;-81
2022/09/27 07:35:25;;;;;;;0.90;0.50;;;;;;;;;;5074025;28;20394;-79
2022/09/27 07:37:51;;;;;;;0.82;0.65;;;;;;;;;;5073963;28;20399;-81
2022/09/27 07:40:18;;;;;;;2.45;0.70;;;;;;;;;;4972186;28;20385;-81
2022/09/27 07:42:43;;;;;;;1.45;0.60;;;9.00;99.90;;;;;;5072807;28;20848;-79
2022/09/27 07:45:10;;;;;;;3.15;0.95;;;8.80;99.90;;;;;;5074052;28;20384;-81
2022/09/27 07:47:40;;;;;;;1.90;1.02;;;8.90;99.90;;;;;;5072376;28;20433;-81
2022/09/27 07:50:09;;;;;;;1.40;1.10;;;9.00;99.90;;;;;;5071065;28;20403;-81
2022/09/27 07:52:42;;;;;;;2.63;1.00;;;9.10;99.90;;;;;;5071903;28;20795;-81
2022/09/27 07:55:10;;;;;;;0.93;0.50;;;9.10;99.90;;;;;;5066084;28;20868;-79
2022/09/27 07:57:36;;;;;;;0.55;0.40;;;9.00;99.90;;;;;;5076795;28;20388;-80
2022/09/27 08:00:08;;;;;;;0.95;0.30;;;8.90;99.90;;;;;;5073377;28;20386;-79
2022/09/27 08:02:34;;;;;;;0.50;0.30;;;8.90;99.90;;;;;;5073832;28;20388;-79
2022/09/27 08:05:00;;;;;;;0.73;0.40;;;8.90;99.90;;;;;;5073907;28;20388;-79
2022/09/27 08:07:27;;;;;;;0.90;0.40;;;8.90;99.90;;;;;;5067119;28;20405;-79
2022/09/27 08:09:53;;;;;;;0.88;0.47;;;8.90;99.90;;;;;;5073827;28;20391;-81
2022/09/27 08:12:20;;;;;;;1.52;0.57;;;9.00;99.90;;;;;;5073490;28;20392;-79
2022/09/27 08:14:46;;;;;;;1.40;0.60;;;8.90;99.90;;;;;;5073837;28;20794;-80
2022/09/27 08:17:13;;;;;;;1.30;0.40;;;9.00;99.90;;;;;;4991505;28;20743;-80
2022/09/27 08:19:39;;;;;;;1.58;0.50;;;8.90;99.90;;;;;;4991332;28;20784;-80
2022/09/27 08:22:06;;;;;;;1.17;0.47;;;8.90;99.90;;;;;;4991353;28;20386;-82
2022/09/27 08:24:32;;;;;;;1.30;0.40;;;9.00;99.90;;;;;;5033598;28;20514;-81
2022/09/27 08:26:58;;;;;;;0.90;0.50;;;9.10;99.90;;;;;;5073035;28;20403;-81
2022/09/27 08:29:24;;;;;;;1.20;0.52;;;9.00;99.90;;;;;;4990950;28;20460;-82
2022/09/27 08:31:52;;;;;;;1.30;0.90;;;9.10;99.90;;;;;;4991269;28;20872;-81
2022/09/27 08:34:18;;;;;;;1.23;0.80;;;9.10;99.90;;;;;;4991502;28;20394;-81
2022/09/27 08:36:44;;;;;;;1.45;0.85;;;9.10;99.90;;;;;;4991256;28;20391;-82
2022/09/27 08:39:10;;;;;;;0.82;0.70;;;9.10;99.90;;;;;;5020225;28;20396;-82
2022/09/27 08:42:16;;;;;;;1.13;0.60;;;9.20;99.90;;;;;;5072943;28;20387;-80
2022/09/27 08:45:09;;;;;;;1.20;0.50;;;9.30;99.90;;;;;;5067796;28;20477;-82
2022/09/27 08:47:49;;;;;;;1.10;0.47;;;9.30;99.90;;;;;;5072962;28;20741;-80
2022/09/27 08:50:21;;;;;;;0.60;0.40;;;9.50;99.90;;;;;;5072708;28;20402;-80
2022/09/27 08:53:12;;;;;;;1.70;0.70;;;9.50;99.90;;;;;;5073061;28;20857;-81
2022/09/27 08:55:48;;;;;;;1.55;0.65;;;9.70;99.90;;;;;;5071040;28;20375;-80
2022/09/27 08:58:27;;;;;;;2.08;0.60;;;9.80;99.90;;;;;;5073361;28;20387;-80
2022/09/27 09:01:05;;;;;;;1.33;0.77;;;9.90;99.90;;;;;;5072155;28;20760;-80
2022/09/27 09:03:35;;;;;;;1.85;0.80;;;10.10;99.90;;;;;;5075545;28;20391;-80
2022/09/27 09:06:38;;;;;;;1.60;0.90;;;10.00;99.90;;;;;;5074463;28;20484;-80
2022/09/27 09:09:33;;;;;;;2.23;1.30;;;10.10;99.90;;;;;;5009948;28;20403;-81
2022/09/27 09:15:29;;;;;;;3.80;1.42;;;10.10;99.90;;;;;;5067895;28;20387;-81
2022/09/27 09:18:23;;;;;;;2.10;1.40;;;10.00;99.90;;;;;;5072598;28;20368;-81
2022/09/27 09:21:25;;;;;;;2.78;1.30;;;10.10;99.90;;;;;;5066719;28;20384;-81
2022/09/27 09:24:28;;;;;;;5.78;1.77;;;10.20;99.90;;;;;;5072721;28;20379;-81
2022/09/27 09:27:12;;;;;;;3.35;1.77;;;10.10;99.90;;;;;;5075726;28;20406;-81
2022/09/27 09:29:43;;;;;;;2.60;1.30;;;10.20;99.90;;;;;;5071960;28;20450;-80
2022/09/27 09:32:24;;;;;;;3.50;1.50;;;10.20;99.90;;;;;;5058710;28;20393;-80
2022/09/27 09:35:45;;;;;;;3.78;1.27;;;9.90;99.90;;;;;;5052214;28;20521;-81
2022/09/27 09:38:22;;;;;;;3.40;1.77;;;10.00;99.90;;;;;;5052526;28;20422;-81
2022/09/27 09:41:01;;;;;;;4.37;1.20;;;9.90;99.90;;;;;;5056303;28;20442;-81
2022/09/27 09:43:43;;;;;;;3.20;1.60;;;9.80;99.90;;;;;;5072351;28;20440;-83
2022/09/27 09:46:19;;;;;;;2.55;2.03;;;9.90;99.90;;;;;;5072309;28;20431;-82
2022/09/27 09:49:32;;;;;;;3.73;2.60;;;9.90;99.90;;;;;;5072175;28;20406;-82
2022/09/27 09:52:15;;;;;;;3.17;1.60;;;10.10;99.90;;;;;;5010815;28;20545;-80
2022/09/27 09:55:05;;;;;;;6.95;1.20;;;10.30;99.90;;;;;;4999341;28;20387;-80
2022/09/27 09:57:42;;;;;;;2.67;1.30;;;10.30;99.90;;;;;;5046786;28;20758;-80
2022/09/27 10:00:15;;;;;;;2.50;0.82;;;10.50;99.90;;;;;;5072320;28;20449;-80
2022/09/27 10:02:43;;;;;;;2.20;0.82;;;10.40;99.90;;;;;;4989889;28;20548;-80
2022/09/27 10:05:13;;;;;;;3.70;1.10;;;10.20;99.90;;;;;;5022734;28;20402;-81
2022/09/27 10:07:39;;;;;;;2.58;1.08;;;10.20;99.90;;;;;;4989688;28;20423;-81
2022/09/27 10:10:07;;;;;;;2.72;1.10;;;10.20;99.90;;;;;;5009151;28;20439;-81
2022/09/27 10:16:10;;;;;;;2.10;1.10;;;10.30;99.90;;;;;;5072381;28;20355;-80
2022/09/27 10:18:43;;;;;;;3.20;1.10;;;10.20;99.90;;;;;;5065628;28;20381;-81
2022/09/27 10:21:22;;;;;;;3.67;1.20;;;10.00;99.90;;;;;;5074787;28;20384;-80
2022/09/27 10:24:09;;;;;;;3.67;1.33;;;9.90;99.90;;;;;;5071970;28;20376;-79
2022/09/27 10:26:37;;;;;;;1.13;0.70;;;9.60;99.90;;;;;;5071975;28;20395;-81
2022/09/27 10:29:22;;;;;;;2.00;0.90;;;9.20;99.90;;;;;;5071879;28;20904;-79
2022/09/27 10:31:50;;;;;;;2.30;0.85;;;9.20;99.90;;;;;;4989590;28;20378;-79
2022/09/27 10:34:34;;;;;;;2.47;1.00;;;9.00;99.90;;;;;;4989519;28;20395;-80
2022/09/27 10:37:26;;;;;;;2.40;1.05;;;9.10;99.90;;;;;;4990294;28;20413;-79
2022/09/27 10:39:52;;;;;;;2.83;1.45;;;9.30;99.90;;;;;;5005967;28;20427;-80
2022/09/27 10:42:37;;;;;;;3.20;1.20;;;9.20;99.90;;;;;;5052306;28;20450;-80
2022/09/27 10:45:26;;;;;;;2.15;1.10;;;9.40;99.90;;;;;;5055628;28;20389;-80
2022/09/27 10:47:51;;;;;;;4.38;1.42;;;9.50;99.90;;;;;;5057256;28;20475;-80
2022/09/27 10:50:24;;;;;;;3.47;1.20;;;9.40;99.90;;;;;;5067847;28;20598;-80
2022/09/27 10:53:19;;;;;;;3.72;1.30;;;9.50;99.90;;;;;;5075215;28;20387;-80
2022/09/27 10:55:51;;;;;;;1.77;1.00;;;9.60;99.90;;;;;;5074682;28;20760;-80
2022/09/27 10:58:27;;;;;;;1.85;1.00;;;9.50;99.90;;;;;;5074783;28;20499;-81
2022/09/27 11:01:00;;;;;;;1.58;0.90;;;9.40;99.90;;;;;;5074537;28;20380;-81
2022/09/27 11:03:27;;;;;;;1.77;0.85;;;9.30;99.90;;;;;;5070124;28;20470;-82
2022/09/27 11:05:54;;;;;;;1.40;0.60;;;9.40;99.90;;;;;;5084706;28;20397;-81
2022/09/27 11:08:32;;;;;;;1.83;0.73;;;9.50;99.90;;;;;;5082486;28;20392;-81
2022/09/27 11:11:15;;;;;;;1.53;0.90;;;9.50;99.90;;;;;;5077892;28;20387;-81
2022/09/27 11:13:56;;;;;;;1.15;0.85;;;9.50;99.90;;;;;;5076938;28;20392;-82
2022/09/27 11:16:48;;;;;;;1.95;0.75;;;9.50;99.90;;;;;;5075532;28;20380;-81
2022/09/27 11:19:26;;;;;;;1.40;0.90;;;9.40;99.90;;;;;;5078315;28;20416;-82
2022/09/27 11:22:08;;;;;;;1.05;0.88;;;9.40;99.90;;;;;;5073743;28;20393;-82
2022/09/27 11:24:48;;;;;;;1.95;0.90;;;9.60;99.90;;;;;;5058465;28;20735;-82
2022/09/27 11:27:14;;;;;;;1.65;0.70;;;9.70;99.90;;;;;;5069531;28;20530;-82
2022/09/27 11:30:13;;;;;;;1.25;0.65;;;9.80;99.90;;;;;;5065330;28;20384;-82
2022/09/27 11:32:53;;;;;;;1.70;0.50;;;9.90;99.90;;;;;;5076094;28;20384;-82
2022/09/27 11:35:43;;;;;;;1.02;0.70;;;9.80;99.90;;;;;;5076951;28;20391;-81
2022/09/27 11:38:31;;;;;;;1.20;0.70;;;9.80;99.90;;;;;;4994661;28;20416;-81
2022/09/27 11:41:01;;;;;;;1.27;0.60;;;9.80;99.90;;;;;;4994297;28;20391;-81
2022/09/27 11:43:46;;;;;;;0.93;0.63;;;9.90;99.90;;;;;;5018579;28;20379;-83
2022/09/27 11:46:34;;;;;;;1.45;0.80;;;10.00;99.90;;;;;;5061747;28;20404;-82
2022/09/27 11:49:21;;;;;;;1.83;0.70;;;10.10;99.90;;;;;;5072418;28;20865;-82
2022/09/27 11:52:01;;;;;;;1.30;0.50;;;10.30;99.90;;;;;;5074761;28;20383;-82
2022/09/27 11:55:04;;;;;;;2.13;0.70;;;10.50;99.90;;;;;;4958905;28;20466;-82
2022/09/27 11:57:40;;;;;;;1.15;0.55;;;10.50;99.90;;;;;;4964940;28;20733;-82
2022/09/27 12:00:19;;;;;;;3.42;0.88;;;10.70;99.90;;;;;;5072568;28;20391;-82
2022/09/27 12:03:05;;;;;;;3.13;0.73;;;10.40;99.90;;;;;;5072770;28;21000;-82
2022/09/27 12:05:51;;;;;;;1.70;0.80;;;10.50;99.90;;;;;;5066865;28;20408;-81
2022/09/27 12:08:51;;;;;;;1.63;0.80;;;10.80;99.90;;;;;;4971973;28;20943;-81
2022/09/27 12:11:29;;;;;;;2.25;0.70;;;11.00;99.90;;;;;;5066287;28;20390;-82
2022/09/27 12:14:02;;;;;;;2.50;0.90;;;11.20;99.90;;;;;;5072568;28;20871;-81
2022/09/27 12:16:30;;;;;;;3.17;0.90;;;11.60;99.90;;;;;;5071856;28;20380;-81
2022/09/27 12:18:58;;;;;;;3.58;0.80;;;12.00;99.90;;;;;;5067720;28;20396;-81
2022/09/27 12:21:25;;;;;;;1.42;0.60;;;11.60;99.90;;;;;;5061155;28;20392;-82
2022/09/27 12:23:58;;;;;;;1.95;0.65;;;11.70;99.90;;;;;;5066127;28;20392;-81
2022/09/27 12:26:39;;;;;;;1.88;0.75;;;11.60;99.90;;;;;;5070667;28;20517;-81
2022/09/27 12:29:19;;;;;;;2.25;0.60;;;11.80;99.90;;;;;;5072436;28;20368;-81
2022/09/27 12:31:50;;;;;;;2.13;0.77;;;11.50;99.90;;;;;;5073065;28;20768;-81
2022/09/27 12:34:16;;;;;;;2.20;0.80;;;11.90;99.90;;;;;;4992062;28;20390;-82
2022/09/27 12:37:10;;;;;;;1.65;0.90;;;11.60;99.90;;;;;;5058484;28;20402;-82
2022/09/27 12:39:54;;;;;;;3.17;0.90;;;11.60;99.90;;;;;;5064562;28;20403;-82
2022/09/27 12:42:43;;;;;;;1.88;0.65;;;11.50;99.90;;;;;;5070296;28;20427;-82
2022/09/27 12:45:13;;;;;;;2.13;0.77;;;11.80;99.90;;;;;;4971563;28;20420;-82
2022/09/27 12:47:57;;;;;;;2.15;0.82;;;12.10;99.90;;;;;;5072175;28;20408;-82
2022/09/27 12:50:45;;;;;;;1.55;0.70;;;11.80;99.90;;;;;;5073076;28;20380;-83
2022/09/27 12:53:22;;;;;;;3.78;0.70;;;11.70;99.90;;;;;;5072989;28;20467;-82
2022/09/27 12:56:19;;;;;;;1.93;0.77;;;12.10;99.90;;;;;;4990961;28;20397;-81
2022/09/27 12:59:09;;;;;;;2.40;1.02;;;11.70;99.90;;;;;;4992346;28;20883;-82
2022/09/27 13:02:05;;;;;;;1.67;0.77;;;;;;;;;;4993459;28;20417;-82
2022/09/27 13:04:51;;;;;;;1.50;0.70;;;;;;;;;;5010879;28;20396;-82
2022/09/27 13:07:26;;;;;;;4.32;0.60;;;;;;;;;;4991391;28;20411;-81
2022/09/27 13:09:55;;;;;;;2.63;0.60;;;;;;;;;;4990995;28;20379;-83
2022/09/27 13:12:23;;;;;;;1.47;0.77;;;;;;;;;;4973285;28;20473;-82
2022/09/27 13:14:52;;;;;;;3.03;0.93;;;;;;;;;;4990700;28;20389;-81
2022/09/27 13:17:36;;;;;;;1.90;0.70;;;;;;;;;;5067881;28;20388;-83
2022/09/27 13:20:22;;;;;;;1.17;0.70;;;;;;;;;;5070812;28;20380;-82
2022/09/27 13:22:48;;;;;;;1.17;0.60;;;;;;;;;;5059014;28;20378;-83
2022/09/27 13:25:34;;;;;;;0.80;0.45;;;;;;;;;;5072768;28;20466;-82
2022/09/27 13:28:01;;;;;;;1.27;0.60;;;;;;;;;;5058762;28;20407;-82
2022/09/27 13:30:27;;;;;;;2.30;0.60;;;;;;;;;;5071611;28;20459;-82
2022/09/27 13:33:08;;;;;;;1.43;0.60;;;;;;;;;;5072311;28;20463;-82
2022/09/27 13:35:34;;;;;;;3.05;0.73;;;;;;;;;;5072464;28;20383;-82
2022/09/27 13:38:00;;;;;;;1.00;0.60;;;;;;;;;;5072456;28;20386;-81
2022/09/27 13:40:29;;;;;;;1.77;0.60;;;;;;;;;;5072314;28;20383;-82
2022/09/27 13:42:55;;;;;;;2.38;0.93;;;;;;;;;;5072231;28;20383;-82
2022/09/27 13:45:27;;;;;;;1.63;0.63;;;;;;;;;;5072252;28;20914;-82
2022/09/27 13:47:53;;;;;;;1.77;0.63;;;;;;;;;;5072123;28;20737;-82
2022/09/27 13:50:24;;;;;;;2.22;0.65;;;;;;;;;;5072237;28;20380;-82
2022/09/27 13:53:05;;;;;;;3.30;0.70;;;;;;;;;;5072133;28;20382;-82
2022/09/27 13:55:40;;;;;;;1.60;0.75;;;;;;;;;;5072047;28;20383;-82
2022/09/27 13:58:21;;;;;;;1.00;0.40;;;;;;;;;;5074694;28;20405;-82
2022/09/27 14:00:50;;;;;;;3.15;0.75;;;;;;;;;;5063234;28;20372;-82
2022/09/27 14:03:36;;;;;;;2.53;0.90;;;;;;;;;;5072364;28;20384;-81
2022/09/27 14:06:04;;;;;;;1.20;0.82;;;;;;;;;;5072126;28;20408;-81
2022/09/27 14:08:32;;;;;;;2.38;0.90;;;;;;;;;;4990105;28;20871;-82
2022/09/27 14:11:00;;;;;;;1.52;0.80;;;;;;;;;;4989750;28;20387;-81
2022/09/27 14:13:26;;;;;;;1.20;0.80;;;;;;;;;;4989945;28;20418;-81
2022/09/27 14:15:54;;;;;;;1.60;0.70;;;;;;;;;;4989682;28;20387;-81
2022/09/27 14:18:21;;;;;;;1.45;0.90;;;;;;;;;;4989676;28;20423;-83
2022/09/27 14:20:49;;;;;;;1.90;0.70;;;;;;;;;;4989462;28;20470;-82
2022/09/27 14:23:20;;;;;;;2.15;0.80;;;;;;;;;;5040907;28;20388;-82
2022/09/27 14:25:47;;;;;;;1.92;0.93;;;;;;;;;;5071215;28;20491;-82
2022/09/27 14:28:23;;;;;;;1.90;0.80;;;;;;;;;;5062925;28;20382;-83
2022/09/27 14:31:04;;;;;;;3.05;0.80;;;;;;;;;;5075392;28;20387;-82
2022/09/27 14:33:32;;;;;;;1.25;0.90;;;;;;;;;;5075455;28;20384;-82
2022/09/27 14:38:44;;;;;;;1.42;0.75;;;;;;;;;;5075494;28;20383;-82
2022/09/27 14:41:10;;;;;;;1.88;0.88;;;;;;;;;;5075052;28;20937;-82
2022/09/27 14:43:41;;;;;;;2.10;1.00;;;;;;;;;;5074823;28;20388;-82
2022/09/27 14:46:07;;;;;;;1.42;0.70;;;;;;;;;;5075204;28;20403;-82
2022/09/27 14:48:35;;;;;;;1.20;0.77;;;;;;;;;;5074785;28;20430;-79
2022/09/27 14:51:02;;;;;;;1.77;1.05;;;;;;;;;;5074196;28;20376;-79
2022/09/27 14:53:48;;;;;;;1.15;0.70;;;;;;;;;;5020111;28;20383;-80
2022/09/27 14:56:21;;;;;;;1.55;0.80;;;;;;;;;;5063865;28;20414;-82
2022/09/27 14:58:47;;;;;;;1.70;1.23;;;;;;;;;;5075343;28;20380;-82
2022/09/27 15:01:18;;;;;;;2.95;1.10;;;;;;;;;;5072245;28;20413;-83
2022/09/27 15:03:45;;;;;;;1.70;0.80;;;;;;;;;;5072574;28;20875;-81
2022/09/27 15:06:11;;;;;;;2.75;1.20;;;;;;;;;;5074387;28;20484;-82
2022/09/27 15:08:37;;;;;;;1.13;0.90;;;;;;;;;;5074972;28;20851;-81
2022/09/27 15:11:06;;;;;;;1.63;0.60;;;;;;;;;;5073852;28;20372;-82
2022/09/27 15:13:32;;;;;;;1.10;0.60;;;;;;;;;;5074840;28;20450;-82
2022/09/27 15:15:58;;;;;;;1.05;0.50;;;;;;;;;;5074626;28;20380;-81
2022/09/27 15:18:37;;;;;;;1.38;0.50;;;;;;;;;;5074831;28;20463;-82
2022/09/27 15:21:04;;;;;;;1.10;0.40;;;;;;;;;;5074405;28;20391;-81
2022/09/27 15:23:34;;;;;;;0.50;0.40;;;;;;;;;;5074278;28;20392;-81
2022/09/27 15:26:05;;;;;;;0.75;0.50;;;;;;;;;;4991720;28;20896;-82
2022/09/27 15:28:32;;;;;;;0.88;0.40;;;;;;;;;;4992395;28;20402;-82
2022/09/27 15:30:59;;;;;;;0.90;0.60;;;;;;;;;;4992092;28;20401;-81
2022/09/27 15:33:27;;;;;;;0.60;0.50;;;;;;;;;;5071797;28;20383;-82
2022/09/27 15:35:55;;;;;;;1.00;0.45;;;;;;;;;;5074596;28;20376;-82
2022/09/27 15:38:21;;;;;;;1.30;0.50;;;;;;;;;;4991286;28;20830;-82
2022/09/27 15:40:47;;;;;;;0.50;0.45;;;;;;;;;;4991123;28;20382;-80
2022/09/27 15:43:20;;;;;;;1.03;0.50;;;;;;;;;;4991935;28;20432;-80
2022/09/27 15:45:50;;;;;;;1.30;0.50;;;;;;;;;;4991736;28;20410;-80
2022/09/27 15:48:17;;;;;;;1.60;1.30;;;;;;;;;;4991727;28;20417;-80
2022/09/27 15:50:43;;;;;;;2.08;1.27;;;;;;;;;;4991627;28;20382;-80
2022/09/27 15:53:10;;;;;;;0.98;0.80;;;;;;;;;;4991649;28;20386;-80
2022/09/27 15:55:44;;;;;;;1.42;0.60;;;;;;;;;;4991596;28;20469;-80
2022/09/27 15:58:21;;;;;;;2.30;0.80;;;;;;;;;;5014296;28;20741;-80
2022/09/27 16:01:05;;;;;;;1.40;0.90;;;;;;;;;;5073429;28;20741;-80
2022/09/27 16:03:31;;;;;;;1.13;0.73;;;;;;;;;;5017584;28;20379;-81
2022/09/27 16:05:58;;;;;;;0.65;0.55;;;;;;;;;;5073754;28;20832;-84
2022/09/27 16:08:25;;;;;;;0.68;0.57;;;;;;;;;;5073773;28;20736;-82
2022/09/27 16:10:53;;;;;;;0.80;0.50;;;;;;;;;;5073447;28;20376;-81
2022/09/27 16:13:19;;;;;;;0.60;0.60;;;;;;;;;;5073372;28;20786;-81
2022/09/27 16:15:46;;;;;;;1.60;0.70;;;;;;;;;;5073612;28;20462;-82
2022/09/27 16:18:13;;;;;;;0.80;0.55;;;;;;;;;;5073620;28;20388;-81
2022/09/27 16:20:38;;;;;;;1.10;0.80;;;;;;;;;;5072153;28;20388;-81
2022/09/27 16:23:04;;;;;;;1.70;1.00;;;;;;;;;;5073151;28;20474;-82
2022/09/27 16:25:30;;;;;;;0.88;0.88;;;;;;;;;;5073301;28;20513;-81
2022/09/27 16:28:00;;;;;;;1.88;0.80;;;;;;;;;;5073239;28;20375;-81
2022/09/27 16:30:27;;;;;;;1.00;0.70;;;;;;;;;;5073142;28;20475;-82
2022/09/27 16:32:53;;;;;;;1.40;0.70;;;;;;;;;;5073142;28;20372;-81
2022/09/27 16:35:21;;;;;;;1.35;0.82;;;;;;;;;;5073154;28;20894;-81
2022/09/27 16:37:47;;;;;;;1.02;0.70;;;;;;;;;;5055417;28;20406;-81
2022/09/27 16:40:14;;;;;;;1.10;0.60;;;;;;;;;;5073083;28;20470;-83
2022/09/27 16:42:41;;;;;;;1.43;0.60;;;;;;;;;;5073066;28;20781;-80
2022/09/27 16:45:07;;;;;;;0.98;0.77;;;;;;;;;;5072571;28;20460;-82
2022/09/27 16:47:34;;;;;;;1.80;1.30;;;;;;;;;;5072839;28;20406;-82
2022/09/27 16:52:48;;;;;;;1.67;1.42;;;;;;;;;;4971454;28;20481;-81
2022/09/27 16:55:19;;;;;;;1.23;0.95;;;;;;;;;;4971444;28;20381;-81
2022/09/27 16:57:45;;;;;;;0.90;0.80;;;;;;;;;;5016297;28;20379;-80
2022/09/27 17:00:11;;;;;;;1.17;0.90;;;;;;;;;;5072641;28;20458;-80
2022/09/27 17:02:37;;;;;;;1.15;0.95;;;;;;;;;;4990239;28;20398;-79
2022/09/27 17:05:04;;;;;;;1.30;0.82;;;;;;;;;;4990766;28;20562;-79
2022/09/27 17:07:30;;;;;;;0.77;0.50;;;;;;;;;;5044015;28;20984;-79
2022/09/27 17:09:56;;;;;;;0.75;0.60;;;;;;;;;;5072530;28;20384;-79
2022/09/27 17:12:23;;;;;;;1.40;0.80;;;;;;;;;;5072655;28;20388;-79
2022/09/27 17:14:49;;;;;;;1.85;0.80;;;;;;;;;;5072790;28;20726;-80
2022/09/27 17:17:15;;;;;;;0.80;0.70;;;;;;;;;;5072304;28;20790;-78
2022/09/27 17:19:41;;;;;;;1.23;0.70;;;;;;;;;;5054643;28;20598;-79
2022/09/27 17:22:07;;;;;;;1.20;0.70;;;;;;;;;;5072522;28;20376;-79
2022/09/27 17:24:33;;;;;;;1.80;0.80;;;;;;;;;;5072488;28;20387;-78
2022/09/27 17:26:59;;;;;;;1.75;0.80;;;;;;;;;;5071924;28;20446;-79
2022/09/27 17:29:25;;;;;;;2.20;1.13;;;;;;;;;;5053901;28;20379;-79
2022/09/27 17:31:51;;;;;;;1.50;1.05;;;;;;;;;;4989915;28;20835;-79
2022/09/27 17:34:17;;;;;;;0.88;0.82;;;;;;;;;;4990174;28;20441;-79
2022/09/27 17:36:48;;;;;;;1.47;1.17;;;;;;;;;;4990490;28;20383;-79
2022/09/27 17:39:15;;;;;;;1.58;1.35;;;;;;;;;;4990573;28;20387;-79
2022/09/27 17:41:41;;;;;;;1.80;1.10;;;;;;;;;;4990049;28;20389;-79
2022/09/27 17:44:07;;;;;;;1.40;1.10;;;;;;;;;;4990311;28;20387;-79
2022/09/27 17:46:34;;;;;;;0.90;0.77;;;;;;;;;;5047356;28;20414;-78
2022/09/27 17:51:46;;;;;;;0.80;0.60;;;;;;;;;;5072374;28;20418;-79
2022/09/27 17:54:13;;;;;;;0.80;0.80;;;;;;;;;;5072302;28;20391;-79
2022/09/27 17:56:39;;;;;;;1.60;0.80;;;;;;;;;;5071989;28;20411;-79
2022/09/27 17:59:06;;;;;;;0.95;0.70;;;;;;;;;;5074680;28;20916;-79
2022/09/27 18:01:32;;;;;;;1.67;0.90;;;;;;;;;;5071897;28;20478;-79
2022/09/27 18:04:00;;;;;;;1.40;0.98;;;;;;;;;;5075478;28;20376;-79
2022/09/27 18:06:26;;;;;;;1.88;1.10;;;;;;;;;;5076170;28;20457;-79
2022/09/27 18:08:53;;;;;;;1.83;0.97;;;;;;;;;;5075940;28;20470;-79
2022/09/27 18:11:24;;;;;;;1.67;1.00;;;;;;;;;;5072317;28;20376;-79
2022/09/27 18:13:50;;;;;;;1.60;1.10;;;;;;;;;;5074841;28;20376;-79
2022/09/27 18:16:17;;;;;;;2.00;1.60;;;;;;;;;;5074887;28;20392;-79
2022/09/27 18:18:46;;;;;;;1.92;1.20;;;;;;;;;;5075280;28;20822;-79
2022/09/27 18:21:14;;;;;;;1.80;1.10;;;;;;;;;;5074603;28;20417;-79
2022/09/27 18:23:40;;;;;;;1.50;1.10;;;;;;;;;;5075469;28;20807;-79
2022/09/27 18:26:07;;;;;;;1.98;1.27;;;;;;;;;;5074448;28;20872;-79
2022/09/27 18:28:34;;;;;;;2.27;1.20;;;;;;;;;;5075216;28;20449;-79
2022/09/27 18:31:01;;;;;;;3.05;1.13;;;;;;;;;;5074840;28;20387;-79
2022/09/27 18:33:27;;;;;;;2.88;1.15;;;;;;;;;;5072522;28;20470;-79
2022/09/27 18:35:53;;;;;;;1.13;0.90;;;;;;;;;;5078302;28;20896;-79
2022/09/27 18:38:19;;;;;;;1.40;0.98;;;;;;;;;;5074984;28;20471;-79
2022/09/27 18:40:45;;;;;;;2.00;1.17;;;;;;;;;;5074891;28;20387;-79
2022/09/27 18:43:11;;;;;;;1.75;0.90;;;;;;;;;;5073732;28;20384;-79
2022/09/27 18:45:37;;;;;;;1.85;1.00;;;;;;;;;;5074210;28;20383;-79